Ocean City (26N)
Ocean City, NJ
Field Elevation: 8
Lat: 39°15.81N  Long: 74°36.45W
CTAF/Unicom Freq: 122.7000
   
     For Weather-by-Phone, call (609) 398-0705
Weather Advisories
2021-08-04   17:44 Z
Altimeter 30.10" Hg
Wind 070° @ 11 KT
Gusts 16 KT
Visibility 10 SM
Ceiling OVC050
Temperature 21° C (70° F)
Dewpoint 19° C (66° F)
Relative Humidity 91%
Density Altitude --
Condensation Altitude --
Wind and Runways
Indicated Runway = 06
Headwind = 11 kt
Crosswind = 2 kt
History
 
 
 
More Info
All DigiWx sites map
Weather Radar
NOAA Forecast
 
Airport IQ 5010
(HMIEM) Shock Trauma Ctr
(PN44) Upper Gwynedd Heliport
 
about DigiWx
 
FAA Disclaimer: The data displayed is for advisory purposes only and is not to be used for flight planning or operations. For official data, please call (609) 398-0705 to hear the current automated AWOS voice message.
  METAR 26N 041744Z AUTO 07011G16KT VIS 10 SM OVC050 21/19 A3010